CheckWX is a tool to help pilots better visualize weather data.  It is not intended as a substitute for an official pre-flight weather briefing.

00:32:46 UTC

KSUU TAF
Travis AFB Airport
Fairfield, California, USA
TAF KSUU 161900Z 1619/1801 23015G25KT 9999 FEW150 QNH2990INS BECMG 1706/1707 23012KT 9999 SKC QNH2997INS TX28/1622Z TN14/1714Z

Sep-16@
19:00 UTC

Sep-16 @ 19:00 UTC

Sep-17@
06:00 UTC

Sep-17 @ 06:00 UTC

TAF KSUU 161900Z 1619/1801 23015G25KT 9999 FEW150 QNH2990INS
Wind
  • 230° at 15 KTS
  • {Gusting to 25 KTS
Cloud Levels
  • Few at 15,000' AGL

Sep-17@
06:00 UTC

Sep-17 @ 06:00 UTC

Sep-18@
01:00 UTC

Sep-18 @ 01:00 UTC

BECMG 1706/1707 23012KT 9999 SKC QNH2997INS TX28/1622Z TN14/1714Z

Becoming

Becoming Conditions expected by Tue, Sep 17, 2019 @ 07:00 UTC

Wind
  • 230° at 12 KTS
Cloud Levels
  • Clear skies